createdAt,value
2016-07-13T00:00:47.000Z,17.9
2016-07-13T00:01:47.153Z,17.87
2016-07-13T00:02:47.456Z,17.9
2016-07-13T00:03:47.000Z,17.93
2016-07-13T00:05:01.911Z,17.77
2016-07-13T00:05:47.006Z,17.71
2016-07-13T00:06:47.093Z,17.82
2016-07-13T00:07:46.993Z,17.71
2016-07-13T00:08:47.198Z,17.59
2016-07-13T00:09:46.993Z,17.68
2016-07-13T00:11:02.658Z,17.71
2016-07-13T00:12:02.712Z,17.68
2016-07-13T00:13:47.991Z,17.63
2016-07-13T00:14:46.981Z,17.7
2016-07-13T00:15:47.341Z,17.66
2016-07-13T00:16:47.334Z,17.56
2016-07-13T00:17:46.983Z,17.56
2016-07-13T00:18:47.027Z,17.58
2016-07-13T00:19:46.985Z,17.58
2016-07-13T00:20:46.980Z,17.55
2016-07-13T00:21:46.982Z,17.48
2016-07-13T00:22:46.973Z,17.44
2016-07-13T00:23:46.971Z,17.41
2016-07-13T00:24:46.982Z,17.49
2016-07-13T00:25:46.971Z,17.54
2016-07-13T00:26:46.970Z,17.52
2016-07-13T00:27:46.969Z,17.41
2016-07-13T00:28:46.966Z,17.46
2016-07-13T00:30:48.189Z,17.34
2016-07-13T00:31:49.231Z,17.34
2016-07-13T00:32:48.724Z,17.31
2016-07-13T00:33:47.075Z,17.4
2016-07-13T00:34:47.911Z,17.41
2016-07-13T00:35:47.561Z,17.41
2016-07-13T00:36:46.957Z,17.23
2016-07-13T00:37:46.949Z,17.36
2016-07-13T00:38:47.923Z,17.26
2016-07-13T00:40:47.811Z,17.22
2016-07-13T00:41:47.852Z,17.14
2016-07-13T00:42:46.958Z,17.23
2016-07-13T00:43:47.905Z,17.28
2016-07-13T00:44:46.943Z,17.28
2016-07-13T00:45:46.947Z,17.21
2016-07-13T00:46:46.944Z,17.16
2016-07-13T00:47:47.037Z,17.12
2016-07-13T00:48:46.938Z,17.04
2016-07-13T00:49:46.937Z,17.07
2016-07-13T00:50:46.936Z,16.98
2016-07-13T00:51:46.930Z,17.03
2016-07-13T00:52:46.936Z,17.01
2016-07-13T00:53:46.931Z,17
2016-07-13T00:54:46.925Z,16.91
2016-07-13T00:55:46.923Z,16.85
2016-07-13T00:56:46.927Z,16.91
2016-07-13T00:57:46.922Z,16.85
2016-07-13T00:58:46.920Z,16.91
2016-07-13T00:59:46.921Z,16.98
2016-07-13T01:00:46.919Z,16.78
2016-07-13T01:01:46.918Z,16.89
2016-07-13T01:02:46.911Z,16.79
2016-07-13T01:03:46.916Z,16.78
2016-07-13T01:04:46.912Z,16.78
2016-07-13T01:05:46.908Z,16.73
2016-07-13T01:06:46.909Z,16.68
2016-07-13T01:07:46.908Z,16.68
2016-07-13T01:08:46.902Z,16.7
2016-07-13T01:09:46.907Z,16.66
2016-07-13T01:10:46.898Z,16.61
2016-07-13T01:11:47.593Z,16.64
2016-07-13T01:12:46.897Z,16.63
2016-07-13T01:13:46.894Z,16.6
2016-07-13T01:14:46.901Z,16.52
2016-07-13T01:15:46.896Z,16.5
2016-07-13T01:16:46.886Z,16.49
2016-07-13T01:17:46.892Z,16.42
2016-07-13T01:18:46.889Z,16.34
2016-07-13T01:19:47.340Z,16.28
2016-07-13T01:20:47.332Z,16.34
2016-07-13T01:21:47.529Z,16.24
2016-07-13T01:22:47.578Z,16.25
2016-07-13T01:23:47.323Z,16.28
2016-07-13T01:24:46.877Z,16.21
2016-07-13T01:25:46.871Z,16.34
2016-07-13T01:26:46.872Z,16.33
2016-07-13T01:27:46.875Z,16.39
2016-07-13T01:30:46.858Z,16.39
2016-07-13T01:31:47.208Z,16.42
2016-07-13T01:32:47.466Z,16.45
2016-07-13T01:33:46.855Z,16.39
2016-07-13T01:34:47.008Z,16.41
2016-07-13T01:35:46.851Z,16.49
2016-07-13T01:36:46.853Z,16.49
2016-07-13T01:37:46.854Z,16.53
2016-07-13T01:38:46.844Z,16.57
2016-07-13T01:39:46.843Z,16.7
2016-07-13T01:40:46.845Z,16.68
2016-07-13T01:41:46.839Z,16.66
2016-07-13T01:42:47.538Z,16.73
2016-07-13T01:43:46.836Z,16.75
2016-07-13T01:44:46.835Z,16.67
2016-07-13T01:45:46.835Z,16.73
2016-07-13T01:46:46.826Z,16.7
2016-07-13T01:48:47.254Z,16.68
2016-07-13T01:49:49.509Z,16.75
2016-07-13T01:50:46.820Z,16.66
2016-07-13T01:51:47.044Z,16.73
2016-07-13T01:52:46.821Z,16.67
2016-07-13T01:53:46.822Z,16.7
2016-07-13T01:54:46.818Z,16.71
2016-07-13T01:55:46.820Z,16.76
2016-07-13T01:56:47.606Z,16.71
2016-07-13T01:58:47.782Z,16.75
2016-07-13T01:59:48.784Z,16.73
2016-07-13T02:00:46.802Z,16.78
2016-07-13T02:01:46.804Z,16.81
2016-07-13T02:02:46.855Z,16.81
2016-07-13T02:03:47.090Z,16.75
2016-07-13T02:04:46.835Z,16.79
2016-07-13T02:05:46.794Z,16.86
2016-07-13T02:06:46.791Z,16.82
2016-07-13T02:07:46.787Z,16.81
2016-07-13T02:08:46.790Z,16.81
2016-07-13T02:09:46.791Z,16.81
2016-07-13T02:10:46.789Z,16.83
2016-07-13T02:11:46.788Z,16.79
2016-07-13T02:12:46.787Z,16.86
2016-07-13T02:13:46.780Z,16.82
2016-07-13T02:14:46.782Z,16.79
2016-07-13T02:15:46.780Z,16.81
2016-07-13T02:16:46.775Z,16.81
2016-07-13T02:17:46.778Z,16.76
2016-07-13T02:18:46.766Z,16.81
2016-07-13T02:19:46.771Z,16.71
2016-07-13T02:20:46.774Z,16.71
2016-07-13T02:21:46.770Z,16.73
2016-07-13T02:22:46.768Z,16.78
2016-07-13T02:23:46.762Z,16.7
2016-07-13T02:24:46.757Z,16.6
2016-07-13T02:25:46.766Z,16.6
2016-07-13T02:26:46.757Z,16.49
2016-07-13T02:27:46.758Z,16.52
2016-07-13T02:28:46.752Z,16.45
2016-07-13T02:29:46.750Z,16.48
2016-07-13T02:30:46.751Z,16.39
2016-07-13T02:31:46.754Z,16.42
2016-07-13T02:32:46.745Z,16.35
2016-07-13T02:33:46.750Z,16.38
2016-07-13T02:34:46.754Z,16.34
2016-07-13T02:35:46.744Z,16.3
2016-07-13T02:36:46.751Z,16.27
2016-07-13T02:37:48.132Z,16.31
2016-07-13T02:38:46.981Z,16.28
2016-07-13T02:39:47.434Z,16.3
2016-07-13T02:40:46.732Z,16.27
2016-07-13T02:41:46.722Z,16.27
2016-07-13T02:42:46.723Z,16.3
2016-07-13T02:43:46.775Z,16.17
2016-07-13T02:44:46.725Z,16.21
2016-07-13T02:45:46.731Z,16.08
2016-07-13T02:46:46.714Z,16.12
2016-07-13T02:48:47.663Z,16.14
2016-07-13T02:50:01.626Z,16.14
2016-07-13T02:50:47.405Z,16.05
2016-07-13T02:51:46.712Z,16.2
2016-07-13T02:52:47.058Z,16.11
2016-07-13T02:53:46.703Z,16.14
2016-07-13T02:54:46.700Z,16.11
2016-07-13T02:55:46.698Z,16.12
2016-07-13T02:56:46.698Z,16.14
2016-07-13T02:57:46.696Z,16.11
2016-07-13T02:58:46.695Z,16.09
2016-07-13T02:59:46.692Z,16.09
2016-07-13T03:00:46.687Z,16.09
2016-07-13T03:01:46.692Z,16.21
2016-07-13T03:02:46.683Z,16.27
2016-07-13T03:03:46.682Z,16.33
2016-07-13T03:04:46.685Z,16.24
2016-07-13T03:05:46.683Z,16.28
2016-07-13T03:07:48.980Z,16.34
2016-07-13T03:08:47.164Z,16.39
2016-07-13T03:09:48.279Z,16.41
2016-07-13T03:10:48.043Z,16.45
2016-07-13T03:11:46.896Z,16.45
2016-07-13T03:12:46.659Z,16.45
2016-07-13T03:13:46.665Z,16.5
2016-07-13T03:14:46.672Z,16.5
2016-07-13T03:15:48.478Z,16.52
2016-07-13T03:16:46.659Z,16.6
2016-07-13T03:17:48.605Z,16.57
2016-07-13T03:18:47.059Z,16.57
2016-07-13T03:19:47.378Z,16.53
2016-07-13T03:20:46.650Z,16.53
2016-07-13T03:21:46.644Z,16.57
2016-07-13T03:22:46.644Z,16.52
2016-07-13T03:23:46.644Z,16.57
2016-07-13T03:24:46.639Z,16.43
2016-07-13T03:25:46.638Z,16.56
2016-07-13T03:26:46.634Z,16.52
2016-07-13T03:27:46.634Z,16.5
2016-07-13T03:28:46.632Z,16.63
2016-07-13T03:29:46.635Z,16.58
2016-07-13T03:30:46.635Z,16.6
2016-07-13T03:31:46.631Z,16.53
2016-07-13T03:32:46.628Z,16.64
2016-07-13T03:33:46.619Z,16.71
2016-07-13T03:34:46.620Z,16.76
2016-07-13T03:35:46.633Z,16.7
2016-07-13T03:36:46.624Z,16.7
2016-07-13T03:37:46.621Z,16.89
2016-07-13T03:38:46.617Z,16.88
2016-07-13T03:39:46.618Z,16.91
2016-07-13T03:40:46.607Z,16.97
2016-07-13T03:41:46.614Z,17.06
2016-07-13T03:42:46.610Z,17.12
2016-07-13T03:43:46.610Z,17.25
2016-07-13T03:44:46.606Z,17.3
2016-07-13T03:45:46.608Z,17.4
2016-07-13T03:46:46.601Z,17.58
2016-07-13T03:47:46.746Z,17.59
2016-07-13T03:48:46.606Z,17.79
2016-07-13T03:49:46.598Z,17.86
2016-07-13T03:50:46.592Z,17.82
2016-07-13T03:51:46.608Z,17.84
2016-07-13T03:52:46.593Z,17.89
2016-07-13T03:53:46.590Z,18.02
2016-07-13T03:54:46.594Z,18.11
2016-07-13T03:55:46.611Z,18.17
2016-07-13T03:56:46.944Z,18.25
2016-07-13T03:58:01.511Z,18.18
2016-07-13T03:58:46.593Z,18.23
2016-07-13T03:59:47.036Z,18.23
2016-07-13T04:00:47.285Z,18.25
2016-07-13T04:01:47.136Z,18.29
2016-07-13T04:02:46.587Z,18.2
2016-07-13T04:03:46.589Z,18.18
2016-07-13T04:04:46.595Z,18.23
2016-07-13T04:06:47.186Z,18.15
2016-07-13T04:07:47.234Z,18.12
2016-07-13T04:08:46.586Z,18.11
2016-07-13T04:09:47.081Z,18.14
2016-07-13T04:10:47.327Z,18.12
2016-07-13T04:11:47.268Z,18.17
2016-07-13T04:12:46.576Z,18.14
2016-07-13T04:13:46.591Z,18.15
2016-07-13T04:14:46.581Z,18.2
2016-07-13T04:15:46.579Z,18.2
2016-07-13T04:16:46.574Z,18.23
2016-07-13T04:17:46.580Z,18.2
2016-07-13T04:18:46.568Z,18.32
2016-07-13T04:19:46.572Z,18.27
2016-07-13T04:20:46.571Z,18.33
2016-07-13T04:21:46.569Z,18.27
2016-07-13T04:22:46.573Z,18.3
2016-07-13T04:23:46.572Z,18.27
2016-07-13T04:24:47.149Z,18.29
2016-07-13T04:25:47.845Z,18.26
2016-07-13T04:26:47.063Z,18.3
2016-07-13T04:27:46.569Z,18.27
2016-07-13T04:28:46.936Z,18.3
2016-07-13T04:29:47.202Z,18.33
2016-07-13T04:30:46.568Z,18.29
2016-07-13T04:31:46.565Z,18.3
2016-07-13T04:32:46.567Z,18.47
2016-07-13T04:33:50.383Z,18.45
2016-07-13T04:34:47.578Z,18.42
2016-07-13T04:35:48.722Z,18.5
2016-07-13T04:36:48.160Z,18.54
2016-07-13T04:37:46.567Z,18.54
2016-07-13T04:38:47.280Z,18.72
2016-07-13T04:39:46.902Z,18.92
2016-07-13T04:40:46.568Z,19.23
2016-07-13T04:41:46.653Z,19.39
2016-07-13T04:42:46.567Z,19.66
2016-07-13T04:43:46.561Z,19.76
2016-07-13T04:44:46.560Z,19.87
2016-07-13T04:45:46.564Z,20.08
2016-07-13T04:46:46.562Z,20.13
2016-07-13T04:47:46.559Z,20.14
2016-07-13T04:48:46.558Z,20.28
2016-07-13T04:49:46.563Z,20.24
2016-07-13T04:50:46.559Z,20.26
2016-07-13T04:51:46.561Z,20.2
2016-07-13T04:52:46.579Z,20.16
2016-07-13T04:53:46.562Z,20.21
2016-07-13T04:54:46.571Z,20.26
2016-07-13T04:55:46.566Z,20.26
2016-07-13T04:56:46.571Z,20.23
2016-07-13T04:57:46.566Z,20.29
2016-07-13T04:58:46.569Z,20.23
2016-07-13T04:59:46.565Z,20.11
2016-07-13T05:00:46.573Z,20.18
2016-07-13T05:01:46.575Z,20.06
2016-07-13T05:02:46.576Z,20.11
2016-07-13T05:03:46.576Z,20.08
2016-07-13T05:04:46.574Z,20.06
2016-07-13T05:05:46.586Z,20.21
2016-07-13T05:06:46.572Z,20.26
2016-07-13T05:07:46.573Z,20.28
2016-07-13T05:08:46.582Z,20.26
2016-07-13T05:09:46.577Z,20.31
2016-07-13T05:10:46.579Z,20.33
2016-07-13T05:11:46.583Z,20.38
2016-07-13T05:12:46.578Z,20.42
2016-07-13T05:13:46.581Z,20.36
2016-07-13T05:14:47.933Z,20.48
2016-07-13T05:15:47.336Z,20.57
2016-07-13T05:16:46.782Z,20.55
2016-07-13T05:17:46.586Z,20.52
2016-07-13T05:18:47.495Z,20.55
2016-07-13T05:19:46.586Z,20.52
2016-07-13T05:20:46.593Z,20.58
2016-07-13T05:21:46.589Z,20.55
2016-07-13T05:22:46.587Z,20.61
2016-07-13T05:23:47.945Z,20.57
2016-07-13T05:26:02.259Z,20.58
2016-07-13T05:26:46.595Z,20.67
2016-07-13T05:27:47.693Z,20.76
2016-07-13T05:28:46.593Z,20.62
2016-07-13T05:29:46.596Z,20.64
2016-07-13T05:30:46.592Z,20.57
2016-07-13T05:31:46.608Z,20.67
2016-07-13T05:32:46.601Z,20.62
2016-07-13T05:33:46.596Z,20.57
2016-07-13T05:34:47.310Z,20.59
2016-07-13T05:35:46.607Z,20.64
2016-07-13T05:36:46.602Z,20.62
2016-07-13T05:37:46.607Z,20.66
2016-07-13T05:38:46.612Z,20.66
2016-07-13T05:39:46.606Z,20.66
2016-07-13T05:40:46.607Z,20.61
2016-07-13T05:41:46.606Z,20.67
2016-07-13T05:42:46.610Z,20.64
2016-07-13T05:43:46.606Z,20.84
2016-07-13T05:44:46.614Z,20.82
2016-07-13T05:45:46.612Z,20.92
2016-07-13T05:46:46.610Z,20.97
2016-07-13T05:47:46.812Z,21.01
2016-07-13T05:48:46.619Z,21.12
2016-07-13T05:49:46.620Z,21.13
2016-07-13T05:50:46.614Z,21.19
2016-07-13T05:51:46.627Z,21.22
2016-07-13T05:52:46.624Z,21.14
2016-07-13T05:53:46.621Z,21.17
2016-07-13T05:54:46.627Z,21.09
2016-07-13T05:55:46.626Z,21.03
2016-07-13T05:56:46.635Z,21.06
2016-07-13T05:57:46.629Z,21.07
2016-07-13T05:58:46.635Z,21.07
2016-07-13T05:59:46.641Z,21.12
2016-07-13T06:00:46.631Z,21.19
2016-07-13T06:01:46.644Z,21.17
2016-07-13T06:02:46.638Z,21.32
2016-07-13T06:03:46.645Z,21.29
2016-07-13T06:04:46.647Z,21.35
2016-07-13T06:05:46.646Z,21.44
2016-07-13T06:06:46.650Z,21.49
2016-07-13T06:07:46.650Z,21.62
2016-07-13T06:08:46.651Z,21.72
2016-07-13T06:09:46.661Z,21.8
2016-07-13T06:10:46.654Z,21.91
2016-07-13T06:11:46.665Z,22.05
2016-07-13T06:12:46.659Z,22.09
2016-07-13T06:13:47.364Z,22.24
2016-07-13T06:14:46.668Z,22.33
2016-07-13T06:15:46.671Z,22.36
2016-07-13T06:16:46.667Z,22.35
2016-07-13T06:17:46.674Z,22.46
2016-07-13T06:18:46.690Z,22.55
2016-07-13T06:19:46.683Z,22.57
2016-07-13T06:20:46.691Z,22.64
2016-07-13T06:21:46.689Z,22.6
2016-07-13T06:22:46.693Z,22.75
2016-07-13T06:23:46.694Z,22.75
2016-07-13T06:24:46.694Z,22.75
2016-07-13T06:25:46.696Z,22.76
2016-07-13T06:26:46.703Z,22.76
2016-07-13T06:27:46.707Z,22.83
2016-07-13T06:28:46.705Z,22.79
2016-07-13T06:29:46.719Z,22.75
2016-07-13T06:30:46.714Z,22.57
2016-07-13T06:31:46.718Z,22.47
2016-07-13T06:33:01.639Z,22.49
2016-07-13T06:33:48.432Z,22.35
2016-07-13T06:34:47.428Z,22.46
2016-07-13T06:35:47.878Z,22.43
2016-07-13T06:36:47.031Z,22.51
2016-07-13T06:37:46.883Z,22.42
2016-07-13T06:38:46.744Z,22.45
2016-07-13T06:39:46.738Z,22.42
2016-07-13T06:40:46.847Z,22.47
2016-07-13T06:41:46.947Z,22.6
2016-07-13T06:42:48.184Z,22.75
2016-07-13T06:43:49.298Z,22.8
2016-07-13T06:44:48.162Z,22.86
2016-07-13T06:45:47.653Z,22.85
2016-07-13T06:46:46.760Z,22.79
2016-07-13T06:47:48.117Z,22.76
2016-07-13T06:48:46.968Z,22.82
2016-07-13T06:49:46.789Z,22.72
2016-07-13T06:50:46.865Z,22.72
2016-07-13T06:52:04.266Z,22.73
2016-07-13T06:52:47.888Z,22.8
2016-07-13T06:53:46.789Z,23.02
2016-07-13T06:54:47.484Z,23.31
2016-07-13T06:55:46.892Z,23.5
2016-07-13T06:56:46.797Z,23.85
2016-07-13T06:57:47.070Z,24.15
2016-07-13T06:58:47.192Z,24.24
2016-07-13T06:59:46.809Z,24.45
2016-07-13T07:00:46.822Z,24.49
2016-07-13T07:01:46.823Z,24.46
2016-07-13T07:02:46.822Z,24.3
2016-07-13T07:03:46.843Z,24.27
2016-07-13T07:04:46.837Z,24.47
2016-07-13T07:05:46.845Z,24.76
2016-07-13T07:06:46.849Z,25.21
2016-07-13T07:07:46.852Z,25.62
2016-07-13T07:08:46.863Z,26.09
2016-07-13T07:09:46.868Z,26.45
2016-07-13T07:10:46.875Z,26.8
2016-07-13T07:11:46.886Z,27.19
2016-07-13T07:12:46.892Z,27.66
2016-07-13T07:13:46.901Z,28.07
2016-07-13T07:14:46.911Z,28.58
2016-07-13T07:15:46.921Z,29.05
2016-07-13T07:16:46.938Z,29.64
2016-07-13T07:17:46.942Z,29.98
2016-07-13T07:18:46.949Z,30.2
2016-07-13T07:19:46.958Z,30.45
2016-07-13T07:20:46.974Z,30.73
2016-07-13T07:21:46.988Z,31.06
2016-07-13T07:22:46.998Z,31.46
2016-07-13T07:23:47.011Z,31.68
2016-07-13T07:24:47.024Z,31.93
2016-07-13T07:25:47.041Z,32.21
2016-07-13T07:26:47.048Z,32.33
2016-07-13T07:27:47.064Z,32.48
2016-07-13T07:28:47.072Z,32.67
2016-07-13T07:29:47.089Z,32.75
2016-07-13T07:30:47.107Z,32.77
2016-07-13T07:31:47.116Z,32.78
2016-07-13T07:32:47.139Z,32.77
2016-07-13T07:33:47.153Z,32.48
2016-07-13T07:34:47.916Z,32.56
2016-07-13T07:35:47.171Z,32.72
2016-07-13T07:36:47.190Z,33.06
2016-07-13T07:37:47.902Z,33.45
2016-07-13T07:38:47.216Z,33.68
2016-07-13T07:39:47.225Z,33.78
2016-07-13T07:40:47.244Z,33.75
2016-07-13T07:41:47.251Z,33.9
2016-07-13T07:42:47.262Z,34.1
2016-07-13T07:43:47.288Z,34.53
2016-07-13T07:44:47.301Z,34.91
2016-07-13T07:45:47.313Z,35.38
2016-07-13T07:46:47.335Z,35.41
2016-07-13T07:47:47.346Z,35.11
2016-07-13T07:48:47.370Z,34.92
2016-07-13T07:49:47.376Z,34.72
2016-07-13T07:50:47.402Z,34.47
2016-07-13T07:53:47.450Z,34.28
2016-07-13T07:54:47.818Z,34.49
2016-07-13T07:55:48.286Z,34.84
2016-07-13T07:56:47.505Z,34.92
2016-07-13T07:57:47.532Z,34.72
2016-07-13T07:58:47.540Z,34.65
2016-07-13T07:59:47.551Z,34.58
2016-07-13T08:00:47.919Z,34.77
2016-07-13T08:01:49.776Z,34.69
2016-07-13T08:03:03.498Z,34.66
2016-07-13T08:03:50.663Z,34.65
2016-07-13T08:04:48.395Z,34.4
2016-07-13T08:05:48.354Z,34.15
2016-07-13T08:06:47.819Z,33.81
2016-07-13T08:07:47.687Z,33.61
2016-07-13T08:08:47.697Z,33.75
2016-07-13T08:09:47.710Z,33.88
2016-07-13T08:10:48.822Z,34.06
2016-07-13T08:11:48.733Z,34.02
2016-07-13T08:12:50.409Z,34.09
2016-07-13T08:13:48.563Z,34.16
2016-07-13T08:14:48.582Z,34.22
2016-07-13T08:15:47.800Z,34.39
2016-07-13T08:16:47.822Z,34.47
2016-07-13T08:17:47.837Z,34.47
2016-07-13T08:18:47.848Z,34.59
2016-07-13T08:19:47.857Z,34.59
2016-07-13T08:20:47.874Z,34.69
2016-07-13T08:21:47.886Z,34.8
2016-07-13T08:22:47.900Z,34.8
2016-07-13T08:23:47.916Z,34.92
2016-07-13T08:24:47.931Z,34.87
2016-07-13T08:25:47.941Z,34.88
2016-07-13T08:26:47.957Z,34.88
2016-07-13T08:27:47.972Z,34.92
2016-07-13T08:28:47.992Z,35.07
2016-07-13T08:29:48.003Z,35.18
2016-07-13T08:30:48.014Z,35.22
2016-07-13T08:31:48.033Z,35.22
2016-07-13T08:32:48.041Z,35.44
2016-07-13T08:33:48.056Z,35.55
2016-07-13T08:34:48.078Z,35.62
2016-07-13T08:35:48.088Z,35.92
2016-07-13T08:36:48.102Z,35.96
2016-07-13T08:37:48.118Z,35.99
2016-07-13T08:38:48.129Z,36.01
2016-07-13T08:39:48.145Z,35.97
2016-07-13T08:40:48.160Z,36.05
2016-07-13T08:41:48.177Z,35.85
2016-07-13T08:42:48.189Z,35.74
2016-07-13T08:43:48.202Z,35.77
2016-07-13T08:44:48.223Z,35.71
2016-07-13T08:45:48.236Z,35.78
2016-07-13T08:46:48.256Z,35.82
2016-07-13T08:47:49.019Z,35.65
2016-07-13T08:48:48.982Z,35.45
2016-07-13T08:49:48.298Z,35.19
2016-07-13T08:50:48.316Z,35.02
2016-07-13T08:51:48.325Z,34.85
2016-07-13T08:52:48.348Z,34.73
2016-07-13T08:53:48.360Z,34.64
2016-07-13T08:54:48.368Z,34.61
2016-07-13T08:55:48.389Z,34.59
2016-07-13T08:56:48.398Z,34.59
2016-07-13T08:57:48.414Z,34.59
2016-07-13T08:58:48.429Z,34.44
2016-07-13T08:59:48.445Z,34.31
2016-07-13T09:00:48.455Z,34.28
2016-07-13T09:01:48.477Z,34.19
2016-07-13T09:02:48.485Z,34.16
2016-07-13T09:03:48.495Z,34.03
2016-07-13T09:04:48.508Z,33.95
2016-07-13T09:05:48.512Z,33.84
2016-07-13T09:06:48.528Z,33.82
2016-07-13T09:07:48.546Z,33.76
2016-07-13T09:08:48.557Z,33.66
2016-07-13T09:09:49.867Z,33.65
2016-07-13T09:11:03.499Z,33.59
2016-07-13T09:12:04.911Z,33.45
2016-07-13T09:13:03.518Z,33.53
2016-07-13T09:13:48.606Z,33.42
2016-07-13T09:14:48.624Z,33.34
2016-07-13T09:15:48.639Z,33.18
2016-07-13T09:16:48.647Z,33.04
2016-07-13T09:17:48.653Z,32.84
2016-07-13T09:18:50.471Z,32.84
2016-07-13T09:19:51.678Z,32.69
2016-07-13T09:20:52.003Z,32.62
2016-07-13T09:21:48.835Z,32.62
2016-07-13T09:22:49.843Z,32.6
2016-07-13T09:23:48.727Z,32.72
2016-07-13T09:24:48.736Z,32.79
2016-07-13T09:25:48.747Z,32.85
2016-07-13T09:26:48.754Z,32.87
2016-07-13T09:27:48.767Z,32.93
2016-07-13T09:28:49.909Z,33.03
2016-07-13T09:30:48.803Z,33.23
2016-07-13T09:31:50.055Z,33.26
2016-07-13T09:32:49.119Z,33.29
2016-07-13T09:33:49.138Z,33.16
2016-07-13T09:34:48.835Z,32.87
2016-07-13T09:35:48.850Z,32.5
2016-07-13T09:36:48.863Z,32.07
2016-07-13T09:37:48.870Z,31.75
2016-07-13T09:38:48.886Z,31.41
2016-07-13T09:39:48.890Z,30.92
2016-07-13T09:40:48.895Z,30.47
2016-07-13T09:41:48.906Z,30.31
2016-07-13T09:42:48.931Z,30.19
2016-07-13T09:43:48.934Z,29.83
2016-07-13T09:44:48.936Z,29.52
2016-07-13T09:45:48.953Z,29.3
2016-07-13T09:46:48.958Z,29.21
2016-07-13T09:47:48.971Z,29.04
2016-07-13T09:48:48.983Z,28.86
2016-07-13T09:49:48.999Z,28.58
2016-07-13T09:50:49.001Z,28.33
2016-07-13T09:51:49.018Z,28.29
2016-07-13T09:52:49.016Z,28.22
2016-07-13T09:53:49.029Z,27.97
2016-07-13T09:54:49.035Z,27.77
2016-07-13T09:55:49.041Z,27.44
2016-07-13T09:56:49.057Z,27.29
2016-07-13T09:57:49.063Z,27.09
2016-07-13T09:58:49.080Z,27.03
2016-07-13T09:59:49.073Z,27.02
2016-07-13T10:00:49.084Z,26.81
2016-07-13T10:01:49.094Z,26.62
2016-07-13T10:02:49.102Z,26.21
2016-07-13T10:03:49.103Z,25.92
2016-07-13T10:04:49.121Z,25.6
2016-07-13T10:05:49.122Z,25.38
2016-07-13T10:06:49.131Z,25.27
2016-07-13T10:07:49.142Z,25.18
2016-07-13T10:08:49.146Z,25.05
2016-07-13T10:09:49.149Z,24.9
2016-07-13T10:10:49.159Z,24.8
2016-07-13T10:11:49.162Z,24.47
2016-07-13T10:12:49.179Z,24.27
2016-07-13T10:13:49.879Z,24.25
2016-07-13T10:14:49.191Z,24.12
2016-07-13T10:15:49.190Z,24.02
2016-07-13T10:16:49.198Z,23.93
2016-07-13T10:17:49.200Z,23.76
2016-07-13T10:18:49.206Z,23.6
2016-07-13T10:19:49.215Z,23.61
2016-07-13T10:20:49.221Z,23.57
2016-07-13T10:21:49.233Z,23.5
2016-07-13T10:22:49.238Z,23.51
2016-07-13T10:23:49.245Z,23.46
2016-07-13T10:24:49.245Z,23.38
2016-07-13T10:25:49.248Z,23.28
2016-07-13T10:26:49.252Z,23.23
2016-07-13T10:29:04.178Z,22.92
2016-07-13T10:29:49.280Z,22.91
2016-07-13T10:30:49.265Z,22.88
2016-07-13T10:31:49.275Z,22.83
2016-07-13T10:32:49.281Z,22.86
2016-07-13T10:33:49.284Z,22.88
2016-07-13T10:34:49.292Z,22.95
2016-07-13T10:35:49.296Z,22.94
2016-07-13T10:38:04.221Z,23.02
2016-07-13T10:38:52.580Z,22.95
2016-07-13T10:39:50.427Z,22.88
2016-07-13T10:40:50.258Z,22.47
2016-07-13T10:41:49.320Z,22.35
2016-07-13T10:42:50.159Z,22.12
2016-07-13T10:43:50.436Z,22.07
2016-07-13T10:44:49.417Z,22.06
2016-07-13T10:45:49.344Z,21.9
2016-07-13T10:46:50.863Z,21.86
2016-07-13T10:47:51.460Z,21.77
2016-07-13T10:48:49.976Z,21.72
2016-07-13T10:49:50.377Z,21.67
2016-07-13T10:50:49.476Z,21.47
2016-07-13T10:51:49.361Z,21.46
2016-07-13T10:52:49.368Z,21.34
2016-07-13T10:53:49.370Z,21.38
2016-07-13T10:54:49.380Z,21.28
2016-07-13T10:55:49.392Z,21.4
2016-07-13T10:56:49.385Z,21.4
2016-07-13T10:57:49.385Z,21.44
2016-07-13T10:58:49.391Z,21.49
2016-07-13T10:59:49.393Z,21.5
2016-07-13T11:00:49.400Z,21.59
2016-07-13T11:01:49.403Z,21.47
2016-07-13T11:02:49.406Z,21.34
2016-07-13T11:03:49.410Z,21.32
2016-07-13T11:04:49.410Z,21.14
2016-07-13T11:05:49.421Z,21.09
2016-07-13T11:06:49.416Z,20.92
2016-07-13T11:07:49.437Z,20.82
2016-07-13T11:08:49.425Z,20.74
2016-07-13T11:09:49.434Z,20.61
2016-07-13T11:10:49.435Z,20.58
2016-07-13T11:11:49.440Z,20.59
2016-07-13T11:12:49.435Z,20.54
2016-07-13T11:13:49.441Z,20.48
2016-07-13T11:14:49.447Z,20.28
2016-07-13T11:15:49.454Z,20.17
2016-07-13T11:16:49.451Z,20.1
2016-07-13T11:17:49.452Z,19.86
2016-07-13T11:18:49.566Z,19.81
2016-07-13T11:19:50.155Z,19.8
2016-07-13T11:20:49.462Z,19.63
2016-07-13T11:21:49.455Z,19.54
2016-07-13T11:22:49.459Z,19.39
2016-07-13T11:23:49.466Z,19.25
2016-07-13T11:24:49.466Z,19.13
2016-07-13T11:25:49.466Z,19.04
2016-07-13T11:26:49.471Z,18.84
2016-07-13T11:27:49.473Z,18.66
2016-07-13T11:28:49.471Z,18.52
2016-07-13T11:29:49.472Z,18.3
2016-07-13T11:30:49.470Z,18.08
2016-07-13T11:31:49.473Z,18.03
2016-07-13T11:32:49.478Z,17.87
2016-07-13T11:33:49.478Z,17.79
2016-07-13T11:34:49.479Z,17.87
2016-07-13T11:35:49.480Z,17.89
2016-07-13T11:36:50.169Z,17.87
2016-07-13T11:37:49.476Z,17.78
2016-07-13T11:38:49.488Z,17.86
2016-07-13T11:39:49.481Z,17.78
2016-07-13T11:40:49.477Z,17.9
2016-07-13T11:41:49.475Z,17.87
2016-07-13T11:42:49.485Z,17.9
2016-07-13T11:43:49.474Z,17.9
2016-07-13T11:44:49.483Z,17.84
2016-07-13T11:46:04.394Z,17.75
2016-07-13T11:50:04.393Z,17.37
2016-07-13T11:50:49.483Z,17.41
2016-07-13T11:51:49.477Z,17.36
2016-07-13T11:52:49.480Z,17.33
2016-07-13T11:53:49.481Z,17.33
2016-07-13T11:54:49.833Z,17.33
2016-07-13T11:55:51.143Z,17.36
2016-07-13T11:57:52.014Z,17.43
2016-07-13T11:58:49.651Z,17.56
2016-07-13T11:59:50.363Z,17.63
2016-07-13T12:00:49.767Z,17.72
2016-07-13T12:01:49.476Z,17.77
2016-07-13T12:02:49.474Z,17.93
2016-07-13T12:03:49.478Z,18.02
2016-07-13T12:04:49.475Z,18
2016-07-13T12:05:51.825Z,18.1
2016-07-13T12:06:51.415Z,18.21
2016-07-13T12:07:49.610Z,18.29
2016-07-13T12:08:50.745Z,18.35
2016-07-13T12:09:50.468Z,18.47
2016-07-13T12:10:49.477Z,18.45
2016-07-13T12:11:49.488Z,18.54
2016-07-13T12:12:49.493Z,18.5
2016-07-13T12:13:49.517Z,18.58
2016-07-13T12:14:49.481Z,18.8
2016-07-13T12:15:49.485Z,18.82
2016-07-13T12:16:49.485Z,18.8
2016-07-13T12:17:49.493Z,18.84
2016-07-13T12:18:50.199Z,18.84
2016-07-13T12:19:49.487Z,18.95
2016-07-13T12:20:49.493Z,19
2016-07-13T12:21:49.493Z,19.16
2016-07-13T12:22:49.498Z,19.21
2016-07-13T12:23:49.498Z,19.36
2016-07-13T12:24:49.502Z,19.5
2016-07-13T12:25:49.496Z,19.74
2016-07-13T12:26:49.506Z,19.95
2016-07-13T12:27:49.505Z,20.17
2016-07-13T12:28:49.502Z,20.2
2016-07-13T12:29:49.653Z,20.26
2016-07-13T12:30:49.512Z,20.14
2016-07-13T12:31:49.517Z,20.18
2016-07-13T12:32:49.519Z,20.17
2016-07-13T12:33:49.516Z,20.08
2016-07-13T12:34:49.520Z,20.02
2016-07-13T12:35:49.522Z,19.88
2016-07-13T12:36:49.520Z,20.08
2016-07-13T12:37:49.529Z,20.05
2016-07-13T12:38:49.529Z,20.05
2016-07-13T12:39:49.536Z,20.14
2016-07-13T12:40:49.542Z,20.24
2016-07-13T12:41:49.542Z,20.26
2016-07-13T12:42:49.543Z,20.29
2016-07-13T12:43:49.542Z,20.54
2016-07-13T12:44:49.550Z,20.57
2016-07-13T12:45:49.559Z,20.62
2016-07-13T12:46:49.552Z,20.69
2016-07-13T12:47:49.557Z,20.92
2016-07-13T12:48:49.559Z,21.07
2016-07-13T12:49:49.566Z,21.16
2016-07-13T12:50:49.571Z,21.52
2016-07-13T12:51:49.570Z,21.75
2016-07-13T12:52:49.573Z,21.84
2016-07-13T12:53:49.578Z,21.86
2016-07-13T12:54:49.581Z,21.88
2016-07-13T12:55:49.590Z,22.07
2016-07-13T12:56:49.594Z,22.03
2016-07-13T12:57:49.589Z,22.1
2016-07-13T12:58:49.596Z,22.15
2016-07-13T12:59:49.604Z,22.37
2016-07-13T13:00:49.604Z,22.52
2016-07-13T13:01:49.605Z,22.73
2016-07-13T13:02:49.612Z,22.7
2016-07-13T13:03:49.618Z,22.73
2016-07-13T13:04:50.217Z,22.77
2016-07-13T13:05:50.022Z,22.8
2016-07-13T13:06:49.629Z,22.82
2016-07-13T13:07:49.635Z,22.98
2016-07-13T13:08:49.636Z,23.04
2016-07-13T13:09:49.643Z,23.05
2016-07-13T13:10:49.652Z,23
2016-07-13T13:11:49.652Z,23.01
2016-07-13T13:12:49.659Z,23.2
2016-07-13T13:14:05.832Z,23.15
2016-07-13T13:14:50.970Z,23.16
2016-07-13T13:15:52.049Z,23.16